sensor_id;sensor_type;location;lat;lon;timestamp;pressure;altitude;pressure_sealevel;temperature;humidity
55068;BME280;40965;52.368;9.712;2023-02-13T00:00:39;103114.22;;;6.93;100.00
55068;BME280;40965;52.368;9.712;2023-02-13T00:03:05;103118.56;;;6.93;100.00
55068;BME280;40965;52.368;9.712;2023-02-13T00:05:32;103114.22;;;6.93;100.00
55068;BME280;40965;52.368;9.712;2023-02-13T00:07:58;103126.44;;;6.94;100.00
55068;BME280;40965;52.368;9.712;2023-02-13T00:10:25;103112.53;;;6.94;100.00
55068;BME280;40965;52.368;9.712;2023-02-13T00:12:51;103119.44;;;6.93;100.00
55068;BME280;40965;52.368;9.712;2023-02-13T00:15:18;103118.56;;;6.93;100.00
55068;BME280;40965;52.368;9.712;2023-02-13T00:17:44;103112.53;;;6.94;100.00
55068;BME280;40965;52.368;9.712;2023-02-13T00:20:11;103107.34;;;6.94;100.00
55068;BME280;40965;52.368;9.712;2023-02-13T00:22:38;103112.47;;;6.92;100.00
55068;BME280;40965;52.368;9.712;2023-02-13T00:25:06;103107.28;;;6.92;100.00
55068;BME280;40965;52.368;9.712;2023-02-13T00:27:33;103106.34;;;6.92;100.00
55068;BME280;40965;52.368;9.712;2023-02-13T00:30:00;103107.16;;;6.91;100.00
55068;BME280;40965;52.368;9.712;2023-02-13T00:32:26;103103.69;;;6.90;100.00
55068;BME280;40965;52.368;9.712;2023-02-13T00:34:53;103103.63;;;6.89;100.00
55068;BME280;40965;52.368;9.712;2023-02-13T00:37:20;103106.16;;;6.87;100.00
55068;BME280;40965;52.368;9.712;2023-02-13T00:39:46;103108.78;;;6.87;100.00
55068;BME280;40965;52.368;9.712;2023-02-13T00:42:13;103110.47;;;6.87;100.00
55068;BME280;40965;52.368;9.712;2023-02-13T00:44:39;103111.38;;;6.87;100.00
55068;BME280;40965;52.368;9.712;2023-02-13T00:47:06;103111.31;;;6.86;100.00
55068;BME280;40965;52.368;9.712;2023-02-13T00:49:32;103112.13;;;6.85;100.00
55068;BME280;40965;52.368;9.712;2023-02-13T00:51:59;103107.78;;;6.85;100.00
55068;BME280;40965;52.368;9.712;2023-02-13T00:54:25;103115.66;;;6.87;100.00
55068;BME280;40965;52.368;9.712;2023-02-13T00:56:52;103107.84;;;6.87;100.00
55068;BME280;40965;52.368;9.712;2023-02-13T00:59:18;103107.78;;;6.85;100.00
55068;BME280;40965;52.368;9.712;2023-02-13T01:01:45;103105.06;;;6.82;100.00
55068;BME280;40965;52.368;9.712;2023-02-13T01:04:11;103111.09;;;6.81;100.00
55068;BME280;40965;52.368;9.712;2023-02-13T01:06:37;103108.34;;;6.78;100.00
55068;BME280;40965;52.368;9.712;2023-02-13T01:09:04;103103.97;;;6.77;100.00
55068;BME280;40965;52.368;9.712;2023-02-13T01:11:31;103100.38;;;6.75;100.00
55068;BME280;40965;52.368;9.712;2023-02-13T01:13:57;103102.09;;;6.74;100.00
55068;BME280;40965;52.368;9.712;2023-02-13T01:16:24;103089.91;;;6.73;100.00
55068;BME280;40965;52.368;9.712;2023-02-13T01:18:50;103093.31;;;6.72;100.00
55068;BME280;40965;52.368;9.712;2023-02-13T01:21:19;103088.91;;;6.71;100.00
55068;BME280;40965;52.368;9.712;2023-02-13T01:23:49;103091.63;;;6.73;100.00
55068;BME280;40965;52.368;9.712;2023-02-13T01:26:22;103089.03;;;6.73;100.00
55068;BME280;40965;52.368;9.712;2023-02-13T01:28:53;103084.69;;;6.73;100.00
55068;BME280;40965;52.368;9.712;2023-02-13T01:31:21;103087.28;;;6.73;100.00
55068;BME280;40965;52.368;9.712;2023-02-13T01:33:48;103082.91;;;6.72;100.00
55068;BME280;40965;52.368;9.712;2023-02-13T01:36:15;103086.41;;;6.73;100.00
55068;BME280;40965;52.368;9.712;2023-02-13T01:38:42;103078.59;;;6.73;100.00
55068;BME280;40965;52.368;9.712;2023-02-13T01:41:09;103069.94;;;6.74;100.00
55068;BME280;40965;52.368;9.712;2023-02-13T01:43:50;103069.06;;;6.73;100.00
55068;BME280;40965;52.368;9.712;2023-02-13T01:46:41;103070.69;;;6.71;100.00
55068;BME280;40965;52.368;9.712;2023-02-13T01:49:13;103070.63;;;6.70;100.00
55068;BME280;40965;52.368;9.712;2023-02-13T01:51:42;103073.25;;;6.70;100.00
55068;BME280;40965;52.368;9.712;2023-02-13T01:54:14;103067.22;;;6.71;100.00
55068;BME280;40965;52.368;9.712;2023-02-13T01:56:54;103070.63;;;6.70;100.00
55068;BME280;40965;52.368;9.712;2023-02-13T01:59:36;103074.97;;;6.69;100.00
55068;BME280;40965;52.368;9.712;2023-02-13T02:02:06;103072.44;;;6.71;100.00
55068;BME280;40965;52.368;9.712;2023-02-13T02:04:35;103076.59;;;6.67;100.00
55068;BME280;40965;52.368;9.712;2023-02-13T02:07:09;103070.56;;;6.68;100.00
55068;BME280;40965;52.368;9.712;2023-02-13T02:09:38;103067.91;;;6.67;100.00
55068;BME280;40965;52.368;9.712;2023-02-13T02:12:23;103062.69;;;6.67;100.00
55068;BME280;40965;52.368;9.712;2023-02-13T02:14:54;103062.75;;;6.68;100.00
55068;BME280;40965;52.368;9.712;2023-02-13T02:17:24;103056.69;;;6.68;100.00
55068;BME280;40965;52.368;9.712;2023-02-13T02:25:52;103050.50;;;6.66;100.00
55068;BME280;40965;52.368;9.712;2023-02-13T02:29:01;103050.50;;;6.66;100.00
55068;BME280;40965;52.368;9.712;2023-02-13T02:31:54;103046.09;;;6.65;100.00
55068;BME280;40965;52.368;9.712;2023-02-13T02:45:23;103038.28;;;6.65;100.00
55068;BME280;40965;52.368;9.712;2023-02-13T02:48:31;103033.03;;;6.63;100.00
55068;BME280;40965;52.368;9.712;2023-02-13T02:51:26;103032.16;;;6.62;100.00
55068;BME280;40965;52.368;9.712;2023-02-13T02:54:55;103028.63;;;6.62;100.00
55068;BME280;40965;52.368;9.712;2023-02-13T02:57:44;103036.44;;;6.62;100.00
55068;BME280;40965;52.368;9.712;2023-02-13T03:01:08;103028.63;;;6.62;100.00
55068;BME280;40965;52.368;9.712;2023-02-13T03:04:23;103027.75;;;6.61;100.00
55068;BME280;40965;52.368;9.712;2023-02-13T03:07:22;103027.06;;;6.66;100.00
55068;BME280;40965;52.368;9.712;2023-02-13T03:10:35;103024.47;;;6.66;100.00
55068;BME280;40965;52.368;9.712;2023-02-13T03:13:45;103029.75;;;6.67;100.00
55068;BME280;40965;52.368;9.712;2023-02-13T03:16:25;103027.94;;;6.66;100.00
55068;BME280;40965;52.368;9.712;2023-02-13T03:23:25;103024.53;;;6.67;100.00
55068;BME280;40965;52.368;9.712;2023-02-13T03:26:19;103027.13;;;6.67;100.00
55068;BME280;40965;52.368;9.712;2023-02-13T03:29:18;103027.06;;;6.66;100.00
55068;BME280;40965;52.368;9.712;2023-02-13T03:35:40;103036.66;;;6.67;100.00
55068;BME280;40965;52.368;9.712;2023-02-13T03:39:28;103033.16;;;6.66;100.00
55068;BME280;40965;52.368;9.712;2023-02-13T03:42:17;103038.47;;;6.68;100.00
55068;BME280;40965;52.368;9.712;2023-02-13T03:45:26;103029.63;;;6.64;100.00
55068;BME280;40965;52.368;9.712;2023-02-13T03:48:15;103046.94;;;6.64;100.00
55068;BME280;40965;52.368;9.712;2023-02-13T03:51:14;103033.78;;;6.60;100.00
55068;BME280;40965;52.368;9.712;2023-02-13T03:53:55;103035.56;;;6.61;100.00
55068;BME280;40965;52.368;9.712;2023-02-13T03:56:56;103038.16;;;6.61;100.00
55068;BME280;40965;52.368;9.712;2023-02-13T03:59:46;103039.22;;;6.65;100.00
55068;BME280;40965;52.368;9.712;2023-02-13T04:02:32;103040.03;;;6.64;100.00
55068;BME280;40965;52.368;9.712;2023-02-13T04:05:24;103042.69;;;6.66;100.00
55068;BME280;40965;52.368;9.712;2023-02-13T04:08:00;103036.53;;;6.64;100.00
55068;BME280;40965;52.368;9.712;2023-02-13T04:11:02;103033.84;;;6.62;100.00
55068;BME280;40965;52.368;9.712;2023-02-13T04:14:47;103039.97;;;6.62;100.00
55068;BME280;40965;52.368;9.712;2023-02-13T04:18:09;103031.34;;;6.64;100.00
55068;BME280;40965;52.368;9.712;2023-02-13T04:21:01;103033.03;;;6.63;100.00
55068;BME280;40965;52.368;9.712;2023-02-13T04:24:57;103031.19;;;6.60;100.00
55068;BME280;40965;52.368;9.712;2023-02-13T04:27:39;103032.09;;;6.61;100.00
55068;BME280;40965;52.368;9.712;2023-02-13T04:30:17;103028.63;;;6.62;100.00
55068;BME280;40965;52.368;9.712;2023-02-13T04:32:50;103025.16;;;6.61;100.00
55068;BME280;40965;52.368;9.712;2023-02-13T04:35:52;103032.97;;;6.61;100.00
55068;BME280;40965;52.368;9.712;2023-02-13T04:38:33;103025.09;;;6.60;100.00
55068;BME280;40965;52.368;9.712;2023-02-13T04:41:08;103023.38;;;6.60;100.00
55068;BME280;40965;52.368;9.712;2023-02-13T04:43:45;103018.97;;;6.59;100.00
55068;BME280;40965;52.368;9.712;2023-02-13T04:46:20;103015.63;;;6.62;100.00
55068;BME280;40965;52.368;9.712;2023-02-13T04:48:56;103023.44;;;6.62;100.00
55068;BME280;40965;52.368;9.712;2023-02-13T04:51:51;103018.97;;;6.59;100.00
55068;BME280;40965;52.368;9.712;2023-02-13T04:54:36;103025.09;;;6.60;100.00
55068;BME280;40965;52.368;9.712;2023-02-13T04:57:06;103022.56;;;6.61;100.00
55068;BME280;40965;52.368;9.712;2023-02-13T04:59:58;103012.97;;;6.60;100.00
55068;BME280;40965;52.368;9.712;2023-02-13T05:02:52;103010.28;;;6.59;100.00
55068;BME280;40965;52.368;9.712;2023-02-13T05:05:26;103014.63;;;6.58;100.00
55068;BME280;40965;52.368;9.712;2023-02-13T05:08:12;103015.38;;;6.56;100.00
55068;BME280;40965;52.368;9.712;2023-02-13T05:10:58;103020.63;;;6.57;100.00
55068;BME280;40965;52.368;9.712;2023-02-13T05:13:39;103018.84;;;6.56;100.00
55068;BME280;40965;52.368;9.712;2023-02-13T05:16:18;103020.63;;;6.57;100.00
55068;BME280;40965;52.368;9.712;2023-02-13T05:19:02;103022.34;;;6.57;100.00
55068;BME280;40965;52.368;9.712;2023-02-13T05:21:32;103025.84;;;6.57;100.00
55068;BME280;40965;52.368;9.712;2023-02-13T05:24:28;103030.88;;;6.54;100.00
55068;BME280;40965;52.368;9.712;2023-02-13T05:26:58;103037.00;;;6.55;100.00
55068;BME280;40965;52.368;9.712;2023-02-13T05:29:38;103033.59;;;6.56;100.00
55068;BME280;40965;52.368;9.712;2023-02-13T05:32:17;103031.88;;;6.56;100.00
55068;BME280;40965;52.368;9.712;2023-02-13T05:34:48;103039.72;;;6.58;100.00
55068;BME280;40965;52.368;9.712;2023-02-13T05:37:21;103033.66;;;6.57;100.00
55068;BME280;40965;52.368;9.712;2023-02-13T05:40:10;103033.72;;;6.59;100.00
55068;BME280;40965;52.368;9.712;2023-02-13T05:43:12;103039.72;;;6.58;100.00
55068;BME280;40965;52.368;9.712;2023-02-13T05:46:07;103038.09;;;6.60;100.00
55068;BME280;40965;52.368;9.712;2023-02-13T05:48:47;103045.97;;;6.61;100.00
55068;BME280;40965;52.368;9.712;2023-02-13T05:51:21;103043.31;;;6.60;100.00
55068;BME280;40965;52.368;9.712;2023-02-13T05:54:09;103040.78;;;6.61;100.00
55068;BME280;40965;52.368;9.712;2023-02-13T05:56:41;103040.78;;;6.61;100.00
55068;BME280;40965;52.368;9.712;2023-02-13T05:59:14;103044.19;;;6.60;100.00
55068;BME280;40965;52.368;9.712;2023-02-13T06:01:45;103038.91;;;6.59;100.00
55068;BME280;40965;52.368;9.712;2023-02-13T06:04:12;103039.72;;;6.58;100.00
55068;BME280;40965;52.368;9.712;2023-02-13T06:06:38;103044.94;;;6.58;100.00
55068;BME280;40965;52.368;9.712;2023-02-13T06:09:05;103048.44;;;6.58;100.00
55068;BME280;40965;52.368;9.712;2023-02-13T06:11:32;103044.13;;;6.59;100.00
55068;BME280;40965;52.368;9.712;2023-02-13T06:13:58;103048.44;;;6.58;100.00
55068;BME280;40965;52.368;9.712;2023-02-13T06:16:49;103045.84;;;6.58;100.00
55068;BME280;40965;52.368;9.712;2023-02-13T06:19:20;103053.66;;;6.58;100.00
55068;BME280;40965;52.368;9.712;2023-02-13T06:21:46;103057.13;;;6.59;100.00
55068;BME280;40965;52.368;9.712;2023-02-13T06:24:13;103059.69;;;6.57;100.00
55068;BME280;40965;52.368;9.712;2023-02-13T06:26:40;103060.63;;;6.59;100.00
55068;BME280;40965;52.368;9.712;2023-02-13T06:29:06;103058.75;;;6.57;100.00
55068;BME280;40965;52.368;9.712;2023-02-13T06:31:39;103057.88;;;6.56;100.00
55068;BME280;40965;52.368;9.712;2023-02-13T06:34:06;103057.94;;;6.58;100.00
55068;BME280;40965;52.368;9.712;2023-02-13T06:36:48;103065.69;;;6.56;100.00
55068;BME280;40965;52.368;9.712;2023-02-13T06:39:27;103071.88;;;6.58;100.00
55068;BME280;40965;52.368;9.712;2023-02-13T06:42:24;103065.69;;;6.56;100.00
55068;BME280;40965;52.368;9.712;2023-02-13T06:45:11;103066.56;;;6.57;100.00
55068;BME280;40965;52.368;9.712;2023-02-13T07:00:51;103068.28;;;6.56;100.00
55068;BME280;40965;52.368;9.712;2023-02-13T07:03:17;103070.03;;;6.56;100.00
55068;BME280;40965;52.368;9.712;2023-02-13T07:05:44;103072.63;;;6.56;100.00
55068;BME280;40965;52.368;9.712;2023-02-13T07:08:12;103074.31;;;6.55;100.00
55068;BME280;40965;52.368;9.712;2023-02-13T07:10:41;103070.91;;;6.56;100.00
55068;BME280;40965;52.368;9.712;2023-02-13T07:13:08;103079.59;;;6.57;100.00
55068;BME280;40965;52.368;9.712;2023-02-13T07:15:36;103079.69;;;6.58;100.00
55068;BME280;40965;52.368;9.712;2023-02-13T07:18:04;103076.22;;;6.59;100.00
55068;BME280;40965;52.368;9.712;2023-02-13T07:20:31;103077.16;;;6.60;100.00
55068;BME280;40965;52.368;9.712;2023-02-13T07:23:03;103075.50;;;6.62;100.00
55068;BME280;40965;52.368;9.712;2023-02-13T07:25:30;103079.81;;;6.61;100.00
55068;BME280;40965;52.368;9.712;2023-02-13T07:28:04;103080.63;;;6.60;100.00
55068;BME280;40965;52.368;9.712;2023-02-13T07:30:32;103083.09;;;6.57;100.00
55068;BME280;40965;52.368;9.712;2023-02-13T07:33:00;103091.84;;;6.59;100.00
55068;BME280;40965;52.368;9.712;2023-02-13T07:35:27;103083.16;;;6.59;100.00
55068;BME280;40965;52.368;9.712;2023-02-13T07:37:54;103092.69;;;6.58;100.00
55068;BME280;40965;52.368;9.712;2023-02-13T07:40:21;103098.84;;;6.60;100.00
55068;BME280;40965;52.368;9.712;2023-02-13T07:42:47;103100.63;;;6.61;100.00
55068;BME280;40965;52.368;9.712;2023-02-13T07:45:14;103100.75;;;6.65;100.00
55068;BME280;40965;52.368;9.712;2023-02-13T07:47:41;103099.13;;;6.67;100.00
55068;BME280;40965;52.368;9.712;2023-02-13T07:50:08;103106.25;;;6.71;100.00
55068;BME280;40965;52.368;9.712;2023-02-13T07:52:35;103101.19;;;6.74;100.00
55068;BME280;40965;52.368;9.712;2023-02-13T07:55:03;103109.22;;;6.78;100.00
55068;BME280;40965;52.368;9.712;2023-02-13T07:57:29;103101.53;;;6.82;100.00
55068;BME280;40965;52.368;9.712;2023-02-13T07:59:57;103100.78;;;6.84;100.00
55068;BME280;40965;52.368;9.712;2023-02-13T08:02:23;103104.38;;;6.86;100.00
55068;BME280;40965;52.368;9.712;2023-02-13T08:04:49;103098.28;;;6.86;100.00
55068;BME280;40965;52.368;9.712;2023-02-13T08:07:16;103100.91;;;6.86;100.00
55068;BME280;40965;52.368;9.712;2023-02-13T08:09:44;103102.75;;;6.88;100.00
55068;BME280;40965;52.368;9.712;2023-02-13T08:12:29;103106.22;;;6.89;100.00
55068;BME280;40965;52.368;9.712;2023-02-13T08:14:57;103111.56;;;6.92;100.00
55068;BME280;40965;52.368;9.712;2023-02-13T08:17:23;103108.16;;;6.93;100.00
55068;BME280;40965;52.368;9.712;2023-02-13T08:19:49;103113.34;;;6.93;100.00
55068;BME280;40965;52.368;9.712;2023-02-13T08:22:16;103114.34;;;6.95;100.00
55068;BME280;40965;52.368;9.712;2023-02-13T08:24:42;103117.88;;;6.97;100.00
55068;BME280;40965;52.368;9.712;2023-02-13T08:27:13;103111.91;;;7.00;100.00
55068;BME280;40965;52.368;9.712;2023-02-13T08:29:40;103117.41;;;7.06;100.00
55068;BME280;40965;52.368;9.712;2023-02-13T08:32:07;103115.78;;;7.08;100.00
55068;BME280;40965;52.368;9.712;2023-02-13T08:34:33;103114.25;;;7.13;100.00
55068;BME280;40965;52.368;9.712;2023-02-13T08:37:00;103114.41;;;7.16;100.00
55068;BME280;40965;52.368;9.712;2023-02-13T08:39:27;103111.78;;;7.16;100.00
55068;BME280;40965;52.368;9.712;2023-02-13T08:41:54;103111.78;;;7.16;100.00
55068;BME280;40965;52.368;9.712;2023-02-13T08:44:20;103118.97;;;7.22;100.00
55068;BME280;40965;52.368;9.712;2023-02-13T08:46:47;103121.06;;;7.29;100.00
55068;BME280;40965;52.368;9.712;2023-02-13T08:49:13;103113.09;;;7.26;100.00
55068;BME280;40965;52.368;9.712;2023-02-13T08:51:40;103124.47;;;7.28;100.00
55068;BME280;40965;52.368;9.712;2023-02-13T08:54:06;103116.66;;;7.28;100.00
55068;BME280;40965;52.368;9.712;2023-02-13T08:56:33;103122.75;;;7.28;100.00
55068;BME280;40965;52.368;9.712;2023-02-13T08:59:00;103118.50;;;7.31;100.00
55068;BME280;40965;52.368;9.712;2023-02-13T09:01:26;103127.50;;;7.37;100.00
55068;BME280;40965;52.368;9.712;2023-02-13T09:03:53;103124.06;;;7.38;100.00
55068;BME280;40965;52.368;9.712;2023-02-13T09:06:20;103123.31;;;7.41;100.00
55068;BME280;40965;52.368;9.712;2023-02-13T09:08:47;103116.38;;;7.41;100.00
55068;BME280;40965;52.368;9.712;2023-02-13T09:11:13;103113.81;;;7.43;100.00
55068;BME280;40965;52.368;9.712;2023-02-13T09:13:40;103115.75;;;7.47;100.00
55068;BME280;40965;52.368;9.712;2023-02-13T09:16:07;103124.69;;;7.52;100.00
55068;BME280;40965;52.368;9.712;2023-02-13T09:18:34;103121.09;;;7.50;100.00
55068;BME280;40965;52.368;9.712;2023-02-13T09:21:10;103113.81;;;7.43;100.00
55068;BME280;40965;52.368;9.712;2023-02-13T09:23:40;103111.16;;;7.41;100.00
55068;BME280;40965;52.368;9.712;2023-02-13T09:26:09;103108.94;;;7.51;100.00
55068;BME280;40965;52.368;9.712;2023-02-13T09:28:37;103116.34;;;7.61;100.00
55068;BME280;40965;52.368;9.712;2023-02-13T09:31:22;103106.06;;;7.64;100.00
55068;BME280;40965;52.368;9.712;2023-02-13T09:33:48;103115.91;;;7.71;100.00
55068;BME280;40965;52.368;9.712;2023-02-13T09:36:18;103116.25;;;7.79;100.00
55068;BME280;40965;52.368;9.712;2023-02-13T09:38:50;103114.59;;;7.81;100.00
55068;BME280;40965;52.368;9.712;2023-02-13T09:41:27;103103.63;;;7.90;100.00
55068;BME280;40965;52.368;9.712;2023-02-13T09:44:02;103114.38;;;7.98;100.00
55068;BME280;40965;52.368;9.712;2023-02-13T09:46:35;103104.97;;;8.01;99.70
55068;BME280;40965;52.368;9.712;2023-02-13T09:49:13;103109.50;;;8.05;99.90
55068;BME280;40965;52.368;9.712;2023-02-13T09:51:46;103107.09;;;8.10;99.39
55068;BME280;40965;52.368;9.712;2023-02-13T09:54:18;103109.31;;;8.22;99.97
55068;BME280;40965;52.368;9.712;2023-02-13T10:02:07;103112.16;;;8.28;97.05
55068;BME280;40965;52.368;9.712;2023-02-13T10:04:55;103128.03;;;8.34;97.77
55068;BME280;40965;52.368;9.712;2023-02-13T10:07:52;103125.56;;;8.37;96.48
55068;BME280;40965;52.368;9.712;2023-02-13T10:10:48;103118.50;;;8.35;96.09
55068;BME280;40965;52.368;9.712;2023-02-13T10:13:47;103122.06;;;8.37;96.02
55068;BME280;40965;52.368;9.712;2023-02-13T10:16:22;103123.06;;;8.40;95.70
55068;BME280;40965;52.368;9.712;2023-02-13T10:22:29;103123.66;;;8.54;94.07
55068;BME280;40965;52.368;9.712;2023-02-13T10:24:51;103129.56;;;8.49;94.34
55068;BME280;40965;52.368;9.712;2023-02-13T10:27:23;103116.84;;;8.58;94.86
55068;BME280;40965;52.368;9.712;2023-02-13T10:30:00;103119.75;;;8.66;93.85
55068;BME280;40965;52.368;9.712;2023-02-13T10:36:04;103125.53;;;8.81;92.88
55068;BME280;40965;52.368;9.712;2023-02-13T10:38:36;103122.31;;;8.87;92.64
55068;BME280;40965;52.368;9.712;2023-02-13T10:41:38;103120.56;;;8.87;92.75
55068;BME280;40965;52.368;9.712;2023-02-13T10:44:20;103124.25;;;8.92;91.69
55068;BME280;40965;52.368;9.712;2023-02-13T10:50:02;103116.41;;;8.92;91.80
55068;BME280;40965;52.368;9.712;2023-02-13T10:52:48;103115.72;;;8.98;91.66
55068;BME280;40965;52.368;9.712;2023-02-13T10:55:43;103112.75;;;9.12;91.81
55068;BME280;40965;52.368;9.712;2023-02-13T10:58:39;103117.09;;;9.11;90.28
55068;BME280;40965;52.368;9.712;2023-02-13T11:01:26;103120.66;;;9.13;90.35
55068;BME280;40965;52.368;9.712;2023-02-13T11:04:08;103115.47;;;9.15;90.12
55068;BME280;40965;52.368;9.712;2023-02-13T11:06:41;103115.53;;;9.16;90.53
55068;BME280;40965;52.368;9.712;2023-02-13T11:09:09;103120.25;;;9.26;89.35
55068;BME280;40965;52.368;9.712;2023-02-13T11:11:40;103110.31;;;9.16;89.68
55068;BME280;40965;52.368;9.712;2023-02-13T11:14:14;103103.19;;;9.12;90.09
55068;BME280;40965;52.368;9.712;2023-02-13T11:17:11;103101.63;;;9.17;89.09
55068;BME280;40965;52.368;9.712;2023-02-13T11:19:50;103098.28;;;9.21;88.38
55068;BME280;40965;52.368;9.712;2023-02-13T11:25:06;103096.69;;;9.25;87.40
55068;BME280;40965;52.368;9.712;2023-02-13T11:27:44;103098.28;;;9.21;87.49
55068;BME280;40965;52.368;9.712;2023-02-13T11:33:06;103095.34;;;9.12;87.86
55068;BME280;40965;52.368;9.712;2023-02-13T11:35:44;103092.09;;;9.18;87.86
55068;BME280;40965;52.368;9.712;2023-02-13T11:38:19;103085.94;;;9.17;87.72
55068;BME280;40965;52.368;9.712;2023-02-13T11:41:02;103085.81;;;9.13;88.05
55068;BME280;40965;52.368;9.712;2023-02-13T11:43:36;103087.78;;;9.20;88.10
55068;BME280;40965;52.368;9.712;2023-02-13T11:46:17;103086.00;;;9.19;88.79
55068;BME280;40965;52.368;9.712;2023-02-13T11:48:56;103076.06;;;9.33;88.52
55068;BME280;40965;52.368;9.712;2023-02-13T11:51:35;103082.66;;;9.47;87.75
55068;BME280;40965;52.368;9.712;2023-02-13T11:54:32;103080.34;;;9.56;87.38
55068;BME280;40965;52.368;9.712;2023-02-13T12:00:28;103075.91;;;9.80;84.80
55068;BME280;40965;52.368;9.712;2023-02-13T12:03:28;103073.50;;;9.86;85.42
55068;BME280;40965;52.368;9.712;2023-02-13T12:06:14;103072.09;;;9.97;85.30
55068;BME280;40965;52.368;9.712;2023-02-13T12:08:47;103072.50;;;10.09;84.35
55068;BME280;40965;52.368;9.712;2023-02-13T12:11:21;103061.25;;;10.12;83.78
55068;BME280;40965;52.368;9.712;2023-02-13T12:13:50;103063.94;;;10.15;83.68
55068;BME280;40965;52.368;9.712;2023-02-13T12:16:37;103062.31;;;10.19;83.04
55068;BME280;40965;52.368;9.712;2023-02-13T12:19:12;103057.25;;;10.23;83.26
55068;BME280;40965;52.368;9.712;2023-02-13T12:22:02;103066.69;;;10.18;83.05
55068;BME280;40965;52.368;9.712;2023-02-13T12:24:47;103062.94;;;10.12;82.58
55068;BME280;40965;52.368;9.712;2023-02-13T12:27:32;103065.19;;;9.99;82.37
55068;BME280;40965;52.368;9.712;2023-02-13T12:36:41;103050.69;;;9.82;83.68
55068;BME280;40965;52.368;9.712;2023-02-13T12:39:35;103042.28;;;9.92;81.99
55068;BME280;40965;52.368;9.712;2023-02-13T12:42:21;103041.00;;;9.79;82.78
55068;BME280;40965;52.368;9.712;2023-02-13T12:45:21;103041.06;;;9.81;83.32
55068;BME280;40965;52.368;9.712;2023-02-13T12:47:59;103043.13;;;9.91;82.71
55068;BME280;40965;52.368;9.712;2023-02-13T12:50:48;103036.47;;;10.01;81.94
55068;BME280;40965;52.368;9.712;2023-02-13T12:56:51;103035.13;;;10.14;80.90
55068;BME280;40965;52.368;9.712;2023-02-13T12:59:42;103033.16;;;10.06;82.05
55068;BME280;40965;52.368;9.712;2023-02-13T13:08:54;103028.66;;;9.75;82.55
55068;BME280;40965;52.368;9.712;2023-02-13T13:12:03;103031.09;;;9.69;83.61
55068;BME280;40965;52.368;9.712;2023-02-13T13:17:40;103021.25;;;9.62;83.92
55068;BME280;40965;52.368;9.712;2023-02-13T13:26:31;103017.53;;;9.29;85.29
55068;BME280;40965;52.368;9.712;2023-02-13T13:29:18;103012.31;;;9.29;85.38
55068;BME280;40965;52.368;9.712;2023-02-13T13:31:52;103008.81;;;9.29;85.62
55068;BME280;40965;52.368;9.712;2023-02-13T13:34:25;103008.00;;;9.30;84.92
55068;BME280;40965;52.368;9.712;2023-02-13T13:40:15;103017.41;;;9.24;85.50
55068;BME280;40965;52.368;9.712;2023-02-13T13:43:25;103011.94;;;9.18;85.75
55068;BME280;40965;52.368;9.712;2023-02-13T13:46:14;103016.13;;;9.13;85.51
55068;BME280;40965;52.368;9.712;2023-02-13T13:48:57;103010.06;;;9.14;84.70
55068;BME280;40965;52.368;9.712;2023-02-13T13:51:35;103010.06;;;9.14;85.60
55068;BME280;40965;52.368;9.712;2023-02-13T13:57:07;102994.06;;;9.05;85.07
55068;BME280;40965;52.368;9.712;2023-02-13T14:12:58;102975.31;;;9.17;84.18
55068;BME280;40965;52.368;9.712;2023-02-13T14:18:06;102972.84;;;9.21;83.85
55068;BME280;40965;52.368;9.712;2023-02-13T14:23:31;102975.75;;;9.31;84.00
55068;BME280;40965;52.368;9.712;2023-02-13T14:28:53;102974.84;;;9.29;83.49
55068;BME280;40965;52.368;9.712;2023-02-13T14:31:30;102971.19;;;9.23;83.55
55068;BME280;40965;52.368;9.712;2023-02-13T14:34:01;102978.81;;;9.17;83.58
55068;BME280;40965;52.368;9.712;2023-02-13T14:36:31;102978.41;;;9.05;83.95
55068;BME280;40965;52.368;9.712;2023-02-13T14:39:06;102973.88;;;9.01;84.43
55068;BME280;40965;52.368;9.712;2023-02-13T14:47:19;102979.78;;;8.95;84.58
55068;BME280;40965;52.368;9.712;2023-02-13T14:49:49;102975.91;;;8.84;84.81
55068;BME280;40965;52.368;9.712;2023-02-13T14:52:23;102974.06;;;8.81;85.09
55068;BME280;40965;52.368;9.712;2023-02-13T14:55:00;102974.97;;;8.82;84.65
55068;BME280;40965;52.368;9.712;2023-02-13T14:57:30;102973.47;;;8.64;85.13
55068;BME280;40965;52.368;9.712;2023-02-13T15:00:16;102977.72;;;8.60;85.40
55068;BME280;40965;52.368;9.712;2023-02-13T15:02:51;102974.97;;;8.57;85.49
55068;BME280;40965;52.368;9.712;2023-02-13T15:05:23;102971.47;;;8.57;85.86
55068;BME280;40965;52.368;9.712;2023-02-13T15:08:14;102974.03;;;8.55;85.35
55068;BME280;40965;52.368;9.712;2023-02-13T15:10:55;102970.41;;;8.52;84.96
55068;BME280;40965;52.368;9.712;2023-02-13T15:13:25;102972.84;;;8.47;85.32
55068;BME280;40965;52.368;9.712;2023-02-13T15:16:00;102979.78;;;8.47;86.11
55068;BME280;40965;52.368;9.712;2023-02-13T15:18:41;102976.41;;;8.49;85.59
55068;BME280;40965;52.368;9.712;2023-02-13T15:21:19;102978.06;;;8.47;85.93
55068;BME280;40965;52.368;9.712;2023-02-13T15:23:52;102980.53;;;8.44;85.41
55068;BME280;40965;52.368;9.712;2023-02-13T15:26:22;102971.63;;;8.39;85.86
55068;BME280;40965;52.368;9.712;2023-02-13T15:29:00;102973.28;;;8.37;86.18
55068;BME280;40965;52.368;9.712;2023-02-13T15:31:30;102969.81;;;8.36;86.18
55068;BME280;40965;52.368;9.712;2023-02-13T15:33:59;102977.63;;;8.36;86.08
55068;BME280;40965;52.368;9.712;2023-02-13T15:36:33;102975.84;;;8.35;86.16
55068;BME280;40965;52.368;9.712;2023-02-13T15:39:05;102973.72;;;8.25;86.50
55068;BME280;40965;52.368;9.712;2023-02-13T15:41:40;102979.56;;;8.18;86.86
55068;BME280;40965;52.368;9.712;2023-02-13T15:44:15;102980.13;;;8.10;87.21
55068;BME280;40965;52.368;9.712;2023-02-13T15:46:48;102983.66;;;8.11;87.75